Time;durP1;ratioP1;P1;durP2;ratioP2;P2;SDS_P1;SDS_P2;PMS_P1;PMS_P2;Temp;Humidity;BMP_temperature;BMP_pressure;BME280_temperature;BME280_humidity;BME280_pressure;Samples;Min_cycle;Max_cycle;Signal;HPM_P1;HPM_P2
2021/09/11 00:01:34;;;;;;;19.77;15.90;;;;;;;16.68;83.64;98592.88;4170301;28;20049;-72
2021/09/11 00:03:34;;;;;;;16.88;13.25;;;;;;;16.67;83.79;98600.47;4168817;28;20187;-72
2021/09/11 00:05:35;;;;;;;17.67;15.70;;;;;;;16.64;84.11;98592.94;4169269;28;20037;-72
2021/09/11 00:07:35;;;;;;;18.02;14.55;;;;;;;16.60;84.37;98596.97;4169526;28;20040;-72
2021/09/11 00:09:36;;;;;;;20.10;14.70;;;;;;;16.61;83.46;98595.75;4170242;28;20048;-72
2021/09/11 00:11:36;;;;;;;20.30;16.65;;;;;;;16.65;84.18;98590.94;4170671;28;20391;-72
2021/09/11 00:13:38;;;;;;;20.85;14.30;;;;;;;16.67;82.97;98599.69;4169828;28;20068;-72
2021/09/11 00:15:38;;;;;;;16.53;13.83;;;;;;;16.65;82.63;98591.72;4169755;28;20315;-72
2021/09/11 00:17:39;;;;;;;18.60;16.40;;;;;;;16.64;84.42;98589.34;4170330;28;20045;-72
2021/09/11 00:19:39;;;;;;;21.70;16.15;;;;;;;16.63;85.89;98594.13;4168967;28;20699;-72
2021/09/11 00:21:40;;;;;;;16.83;14.23;;;;;;;16.62;84.34;98591.75;4169274;28;20040;-72
2021/09/11 00:23:40;;;;;;;19.65;14.93;;;;;;;16.60;84.45;98586.56;4169526;28;20083;-72
2021/09/11 00:25:41;;;;;;;20.20;15.48;;;;;;;16.58;85.05;98591.78;4168830;28;20485;-72
2021/09/11 00:27:41;;;;;;;20.45;15.80;;;;;;;16.56;85.54;98583.84;4168549;28;20064;-72
2021/09/11 00:29:41;;;;;;;22.75;16.30;;;;;;;16.56;84.32;98585.84;4168358;28;20040;-72
2021/09/11 00:31:42;;;;;;;18.48;14.95;;;;;;;16.57;83.37;98590.22;4167128;28;20053;-72
2021/09/11 00:33:42;;;;;;;19.20;14.18;;;;;;;16.58;83.15;98580.63;4168335;28;20293;-72
2021/09/11 00:35:43;;;;;;;18.00;15.85;;;;;;;16.56;84.92;98588.63;4168521;28;20045;-72
2021/09/11 00:37:43;;;;;;;23.00;17.42;;;;;;;16.52;85.59;98588.66;4169751;28;20047;-72
2021/09/11 00:39:44;;;;;;;18.77;15.57;;;;;;;16.50;85.34;98591.06;4168783;28;20405;-72
2021/09/11 00:41:44;;;;;;;21.25;17.08;;;;;;;16.52;85.64;98593.44;4168117;28;20376;-72
2021/09/11 00:43:46;;;;;;;17.63;13.15;;;;;;;16.50;85.33;98598.66;4168920;28;20049;-72
2021/09/11 00:45:47;;;;;;;17.40;15.32;;;;;;;16.50;85.30;98591.06;4152069;28;20262;-72
2021/09/11 00:47:47;;;;;;;17.88;14.57;;;;;;;16.50;85.11;98590.28;4169947;28;20098;-72
2021/09/11 00:49:48;;;;;;;17.75;14.20;;;;;;;16.48;85.26;98584.34;4169031;28;20052;-72
2021/09/11 00:51:48;;;;;;;20.77;15.77;;;;;;;16.44;85.24;98586.34;4168924;28;20050;-72
2021/09/11 00:53:48;;;;;;;17.42;14.93;;;;;;;16.41;85.31;98584.41;4169084;28;20041;-72
2021/09/11 00:55:49;;;;;;;16.98;15.15;;;;;;;16.40;85.44;98585.59;4167263;28;20041;-72
2021/09/11 00:57:49;;;;;;;17.02;13.93;;;;;;;16.39;85.61;98584.03;4168955;28;20048;-72
2021/09/11 00:59:50;;;;;;;15.23;13.70;;;;;;;16.40;85.19;98594.78;4169260;28;20436;-72
2021/09/11 01:01:50;;;;;;;15.95;13.23;;;;;;;16.42;83.42;98595.16;4168695;28;20057;-72
2021/09/11 01:03:50;;;;;;;16.17;12.90;;;;;;;16.44;83.19;98591.94;4169010;28;20053;-72
2021/09/11 01:05:51;;;;;;;18.75;14.30;;;;;;;16.43;84.26;98590.34;4168983;28;20072;-72
2021/09/11 01:07:51;;;;;;;16.77;14.25;;;;;;;16.39;84.36;98593.19;4168475;28;20369;-72
2021/09/11 01:09:52;;;;;;;16.13;13.13;;;;;;;16.37;84.15;98594.78;4168885;28;20045;-72
2021/09/11 01:11:53;;;;;;;16.00;13.25;;;;;;;16.35;83.36;98588.84;4168070;28;20084;-72
2021/09/11 01:13:53;;;;;;;15.07;13.40;;;;;;;16.36;83.80;98593.22;4167113;28;20048;-72
2021/09/11 01:15:56;;;;;;;16.45;13.65;;;;;;;16.29;84.23;98589.28;4168023;28;20110;-72
2021/09/11 01:17:57;;;;;;;17.75;14.10;;;;;;;16.33;84.08;98594.06;4169216;28;20069;-72
2021/09/11 01:19:57;;;;;;;16.05;13.65;;;;;;;16.32;84.01;98593.25;4168508;28;20511;-72
2021/09/11 01:21:57;;;;;;;16.27;14.55;;;;;;;16.32;83.98;98596.06;4168819;28;20237;-72
2021/09/11 01:23:58;;;;;;;16.52;13.18;;;;;;;16.28;83.95;98584.13;4167652;28;20045;-72
2021/09/11 01:25:58;;;;;;;18.70;14.55;;;;;;;16.29;84.53;98592.06;4168316;28;20037;-72
2021/09/11 01:27:59;;;;;;;16.15;14.10;;;;;;;16.28;84.79;98586.91;4168227;28;20095;-72
2021/09/11 01:30:04;;;;;;;15.55;13.60;;;;;;;16.21;85.01;98581.38;4169381;28;20037;-72
2021/09/11 01:32:07;;;;;;;17.05;14.05;;;;;;;16.20;85.17;98590.97;4168884;28;20448;-72
2021/09/11 01:34:08;;;;;;;15.75;14.10;;;;;;;16.19;84.72;98583.81;4150406;28;20355;-72
2021/09/11 01:36:08;;;;;;;20.27;12.82;;;;;;;16.22;84.70;98588.59;4168788;28;20041;-72
2021/09/11 01:38:08;;;;;;;15.90;14.02;;;;;;;16.23;84.48;98588.16;4168657;28;20033;-72
2021/09/11 01:40:09;;;;;;;17.48;14.73;;;;;;;16.20;85.44;98585.38;4169029;28;20448;-72
2021/09/11 01:42:10;;;;;;;16.20;14.45;;;;;;;16.21;86.19;98590.56;4167635;28;20021;-72
2021/09/11 01:44:10;;;;;;;14.13;12.63;;;;;;;16.20;85.42;98591.75;4167650;28;20362;-72
2021/09/11 01:46:10;;;;;;;15.43;13.05;;;;;;;16.23;84.21;98592.97;4168036;28;20037;-72
2021/09/11 01:48:11;;;;;;;13.88;12.32;;;;;;;16.27;83.94;98596.50;4168566;28;20033;-72
2021/09/11 01:50:13;;;;;;;15.52;11.88;;;;;;;16.32;85.04;98595.25;4168166;28;20127;-72
2021/09/11 01:52:13;;;;;;;14.52;11.18;;;;;;;16.36;84.96;98596.00;4167789;28;20353;-72
2021/09/11 01:54:14;;;;;;;19.13;12.07;;;;;;;16.37;84.37;98595.59;4167393;28;20040;-72
2021/09/11 01:56:14;;;;;;;16.20;11.82;;;;;;;16.42;83.71;98585.97;4168778;28;20419;-72
2021/09/11 01:58:14;;;;;;;11.48;10.15;;;;;;;16.45;83.42;98590.72;4169394;28;20040;-72
2021/09/11 02:00:18;;;;;;;12.20;10.45;;;;;;;16.48;83.69;98601.09;4168332;28;20252;-72
2021/09/11 02:02:19;;;;;;;13.45;10.48;;;;;;;16.49;83.62;98589.50;4168915;28;20041;-72
2021/09/11 02:04:19;;;;;;;12.93;9.55;;;;;;;16.47;84.03;98597.50;4167874;28;20059;-72
2021/09/11 02:06:21;;;;;;;16.00;11.65;;;;;;;16.45;84.68;98587.94;4167650;28;20048;-72
2021/09/11 02:08:22;;;;;;;13.55;10.57;;;;;;;16.46;84.81;98597.91;4166981;28;20044;-72
2021/09/11 02:10:22;;;;;;;12.82;10.70;;;;;;;16.46;84.34;98601.47;4168769;28;20517;-72
2021/09/11 02:12:22;;;;;;;16.42;12.07;;;;;;;16.47;83.46;98599.50;4168556;28;20041;-72
2021/09/11 02:14:23;;;;;;;15.02;11.88;;;;;;;16.44;83.95;98595.53;4168098;28;20610;-72
2021/09/11 02:16:23;;;;;;;14.95;11.48;;;;;;;16.40;83.65;98594.00;4168989;28;20203;-72
2021/09/11 02:18:24;;;;;;;19.83;11.68;;;;;;;16.41;83.42;98598.38;4168938;28;20044;-72
2021/09/11 02:20:24;;;;;;;15.30;11.32;;;;;;;16.39;83.90;98595.19;4168045;28;20060;-72
2021/09/11 02:22:24;;;;;;;13.20;11.20;;;;;;;16.35;84.73;98589.63;4168637;28;20481;-72
2021/09/11 02:24:25;;;;;;;17.08;10.85;;;;;;;16.27;84.76;98590.91;4167963;28;20049;-72
2021/09/11 02:26:25;;;;;;;14.18;10.75;;;;;;;16.27;84.45;98588.91;4167979;28;20037;-72
2021/09/11 02:28:26;;;;;;;15.15;11.82;;;;;;;16.24;84.45;98594.53;4167760;28;20045;-72
2021/09/11 02:30:26;;;;;;;14.27;10.27;;;;;;;16.22;83.99;98591.38;4166490;28;20041;-72
2021/09/11 02:32:26;;;;;;;14.98;11.25;;;;;;;16.22;83.46;98600.53;4168458;28;20049;-72
2021/09/11 02:34:30;;;;;;;13.45;9.57;;;;;;;16.21;84.39;98596.13;4167132;28;20029;-72
2021/09/11 02:36:30;;;;;;;12.88;11.10;;;;;;;16.18;84.62;98596.97;4167821;28;20460;-72
2021/09/11 02:38:31;;;;;;;14.70;11.68;;;;;;;16.19;84.95;98597.75;4168676;28;20578;-72
2021/09/11 02:40:31;;;;;;;15.63;11.18;;;;;;;16.17;85.44;98598.19;4167763;28;20652;-72
2021/09/11 02:42:32;;;;;;;14.32;11.93;;;;;;;16.16;85.33;98613.34;4168758;28;20041;-72
2021/09/11 02:44:32;;;;;;;20.67;10.68;;;;;;;16.14;85.45;98606.59;4167851;28;20041;-72
2021/09/11 02:46:32;;;;;;;13.85;11.55;;;;;;;16.14;85.77;98612.97;4167954;28;20052;-72
2021/09/11 02:48:33;;;;;;;12.55;11.25;;;;;;;16.14;86.37;98607.38;4167810;28;20455;-72
2021/09/11 02:50:33;;;;;;;14.02;11.50;;;;;;;16.12;86.55;98612.56;4168502;28;20052;-72
2021/09/11 02:52:34;;;;;;;16.38;12.45;;;;;;;16.14;86.70;98610.19;4169545;28;20119;-72
2021/09/11 02:54:34;;;;;;;14.95;12.30;;;;;;;16.17;85.83;98612.13;4169832;28;20037;-72
2021/09/11 02:56:34;;;;;;;14.70;10.95;;;;;;;16.23;85.54;98610.50;4171473;28;20064;-72
2021/09/11 02:58:35;;;;;;;15.90;11.65;;;;;;;16.24;85.76;98605.69;4171278;28;20045;-72
2021/09/11 03:00:35;;;;;;;16.33;12.35;;;;;;;16.25;86.05;98608.06;4170108;28;20037;-72
2021/09/11 03:02:36;;;;;;;14.40;11.98;;;;;;;16.22;87.13;98605.31;4171156;28;20048;-72
2021/09/11 03:04:37;;;;;;;12.82;10.93;;;;;;;16.26;85.79;98614.44;4170861;28;20465;-72
2021/09/11 03:06:37;;;;;;;13.48;11.35;;;;;;;16.28;86.13;98612.81;4170386;28;20045;-72
2021/09/11 03:08:37;;;;;;;15.00;11.20;;;;;;;16.27;86.39;98607.66;4169666;28;20037;-72
2021/09/11 03:10:38;;;;;;;12.00;9.95;;;;;;;16.25;86.06;98607.28;4170808;28;20334;-72
2021/09/11 03:12:38;;;;;;;14.20;12.23;;;;;;;16.27;86.48;98605.66;4170932;28;20547;-72
2021/09/11 03:14:39;;;;;;;16.45;11.73;;;;;;;16.27;85.83;98600.06;4170468;28;20099;-72
2021/09/11 03:16:39;;;;;;;14.98;11.88;;;;;;;16.29;85.49;98605.22;4170760;28;20584;-72
2021/09/11 03:18:39;;;;;;;17.85;10.93;;;;;;;16.30;84.90;98609.59;4170554;28;20092;-72
2021/09/11 03:20:40;;;;;;;13.05;10.48;;;;;;;16.34;84.24;98604.00;4171601;28;20037;-72
2021/09/11 03:22:40;;;;;;;12.60;10.88;;;;;;;16.38;85.17;98604.75;4169394;28;20045;-72
2021/09/11 03:24:40;;;;;;;15.85;13.25;;;;;;;16.37;86.22;98603.16;4170482;28;20054;-72
2021/09/11 03:26:41;;;;;;;14.40;11.68;;;;;;;16.35;85.97;98606.38;4170246;28;20387;-72
2021/09/11 03:28:41;;;;;;;13.98;11.75;;;;;;;16.34;84.37;98612.38;4169045;28;20041;-72
2021/09/11 03:30:42;;;;;;;16.08;12.20;;;;;;;16.34;84.97;98606.81;4170609;28;20792;-72
2021/09/11 03:32:42;;;;;;;16.60;12.32;;;;;;;16.31;85.04;98616.81;4169679;28;20052;-72
2021/09/11 03:34:42;;;;;;;18.08;13.25;;;;;;;16.27;85.26;98605.66;4170470;28;20037;-72
2021/09/11 03:36:43;;;;;;;18.15;12.48;;;;;;;16.26;85.78;98606.06;4171213;28;20045;-72
2021/09/11 03:38:43;;;;;;;17.05;13.63;;;;;;;16.26;86.42;98614.44;4170118;28;20048;-72
2021/09/11 03:40:43;;;;;;;17.65;13.15;;;;;;;16.25;86.14;98610.88;4171170;28;20295;-72
2021/09/11 03:42:44;;;;;;;12.30;11.00;;;;;;;16.25;86.01;98610.06;4169053;28;20561;-72
2021/09/11 03:44:44;;;;;;;14.63;11.85;;;;;;;16.20;84.48;98611.31;4169764;28;20033;-72
2021/09/11 03:46:44;;;;;;;16.67;13.30;;;;;;;16.28;86.12;98614.81;4169556;28;20107;-72
2021/09/11 03:48:45;;;;;;;13.93;11.90;;;;;;;16.30;84.78;98615.19;4169387;28;20056;-72
2021/09/11 03:50:45;;;;;;;17.10;13.38;;;;;;;16.32;85.48;98620.38;4170410;28;20678;-72
2021/09/11 03:52:46;;;;;;;13.45;10.95;;;;;;;16.31;85.48;98613.22;4170299;28;20053;-72
2021/09/11 03:54:46;;;;;;;15.13;12.90;;;;;;;16.26;86.33;98612.44;4170055;28;20037;-72
2021/09/11 03:56:46;;;;;;;15.57;11.85;;;;;;;16.26;85.02;98606.88;4169728;28;20219;-72
2021/09/11 03:58:47;;;;;;;13.93;12.32;;;;;;;16.28;85.00;98607.25;4170534;28;20045;-72
2021/09/11 04:00:47;;;;;;;13.90;11.73;;;;;;;16.29;84.50;98608.81;4170369;28;20230;-72
2021/09/11 04:02:47;;;;;;;17.42;12.23;;;;;;;16.31;84.60;98605.63;4169933;28;20049;-72
2021/09/11 04:04:48;;;;;;;15.95;11.52;;;;;;;16.31;85.02;98604.84;4169881;28;20465;-72
2021/09/11 04:06:48;;;;;;;16.48;12.93;;;;;;;16.32;85.09;98612.00;4168515;28;20064;-72
2021/09/11 04:08:49;;;;;;;18.33;12.02;;;;;;;16.31;85.23;98607.63;4170005;28;20045;-72
2021/09/11 04:10:49;;;;;;;13.93;10.30;;;;;;;16.28;85.12;98612.03;4170115;28;20041;-72
2021/09/11 04:12:49;;;;;;;14.10;10.73;;;;;;;16.30;84.54;98609.59;4170606;28;20131;-72
2021/09/11 04:14:50;;;;;;;15.55;10.52;;;;;;;16.30;84.17;98606.81;4168167;28;20479;-72
2021/09/11 04:16:50;;;;;;;16.52;12.20;;;;;;;16.33;84.00;98606.00;4170212;28;20068;-72
2021/09/11 04:18:50;;;;;;;15.38;12.45;;;;;;;16.36;84.16;98613.56;4168981;28;20067;-72
2021/09/11 04:20:51;;;;;;;13.60;11.23;;;;;;;16.36;84.03;98610.75;4169540;28;20098;-72
2021/09/11 04:22:51;;;;;;;12.82;10.88;;;;;;;16.37;85.02;98615.13;4168741;28;20469;-72
2021/09/11 04:24:52;;;;;;;19.25;13.27;;;;;;;16.36;86.22;98612.75;4168763;28;20048;-72
2021/09/11 04:26:53;;;;;;;19.27;12.70;;;;;;;16.35;86.52;98609.19;4169276;28;20064;-72
2021/09/11 04:28:53;;;;;;;18.92;12.82;;;;;;;16.31;85.56;98607.63;4169871;28;20037;-72
2021/09/11 04:30:53;;;;;;;17.45;11.52;;;;;;;16.29;85.67;98606.03;4168941;28;20381;-72
2021/09/11 04:32:54;;;;;;;18.80;13.98;;;;;;;16.25;86.47;98605.28;4168881;28;20056;-72
2021/09/11 04:34:54;;;;;;;16.55;12.07;;;;;;;16.26;85.34;98604.06;4168709;28;20045;-72
2021/09/11 04:36:55;;;;;;;16.17;13.35;;;;;;;16.26;85.76;98612.44;4169876;28;20102;-72
2021/09/11 04:38:55;;;;;;;15.63;12.73;;;;;;;16.26;85.29;98612.44;4168243;28;20037;-72
2021/09/11 04:40:55;;;;;;;18.20;13.45;;;;;;;16.22;86.37;98611.69;4170119;28;20037;-72
2021/09/11 04:42:56;;;;;;;17.30;12.43;;;;;;;16.14;85.51;98607.38;4169475;28;20060;-72
2021/09/11 04:44:56;;;;;;;20.55;13.35;;;;;;;16.14;86.29;98617.75;4169116;28;20503;-72
2021/09/11 04:46:56;;;;;;;18.90;12.75;;;;;;;16.13;85.92;98627.31;4167191;28;20041;-72
2021/09/11 04:48:57;;;;;;;14.13;11.07;;;;;;;16.13;84.96;98627.31;4167476;28;20418;-72
2021/09/11 04:50:57;;;;;;;17.02;12.90;;;;;;;16.14;85.26;98620.56;4169042;28;20045;-72
2021/09/11 04:52:58;;;;;;;16.30;12.57;;;;;;;16.15;85.63;98630.50;4169263;28;20048;-72
2021/09/11 04:54:58;;;;;;;17.40;14.10;;;;;;;16.15;85.58;98628.50;4169031;28;20037;-72
2021/09/11 04:56:58;;;;;;;15.68;11.05;;;;;;;16.15;85.49;98628.50;4169785;28;20037;-72
2021/09/11 04:58:59;;;;;;;14.70;12.32;;;;;;;16.17;85.09;98633.69;4168075;28;20053;-72
2021/09/11 05:00:59;;;;;;;17.17;13.35;;;;;;;16.18;85.63;98624.88;4167590;28;20381;-72
2021/09/11 05:02:59;;;;;;;14.98;11.77;;;;;;;16.19;85.88;98628.47;4168991;28;20771;-72
2021/09/11 05:05:00;;;;;;;17.95;13.70;;;;;;;16.17;85.85;98626.09;4169278;28;20501;-72
2021/09/11 05:07:00;;;;;;;15.63;12.35;;;;;;;16.15;85.67;98620.13;4168897;28;20045;-72
2021/09/11 05:09:01;;;;;;;18.55;14.27;;;;;;;16.18;86.04;98629.69;4168952;28;20052;-72
2021/09/11 05:11:01;;;;;;;17.02;14.35;;;;;;;16.17;86.24;98631.69;4169423;28;20040;-72
2021/09/11 05:13:01;;;;;;;16.00;12.65;;;;;;;16.19;86.63;98631.25;4168338;28;20041;-72
2021/09/11 05:15:02;;;;;;;16.73;13.43;;;;;;;16.22;86.77;98625.66;4166858;28;20751;-72
2021/09/11 05:17:02;;;;;;;17.90;12.98;;;;;;;16.16;87.52;98620.94;4169391;28;20053;-72
2021/09/11 05:19:03;;;;;;;17.50;13.07;;;;;;;16.21;87.38;98628.84;4169799;28;20076;-72
2021/09/11 05:21:04;;;;;;;17.15;13.18;;;;;;;16.19;87.73;98628.47;4167935;28;20111;-72
2021/09/11 05:23:05;;;;;;;17.63;13.50;;;;;;;16.17;87.71;98630.88;4167618;28;20052;-72
2021/09/11 05:25:06;;;;;;;18.83;13.18;;;;;;;16.12;87.97;98637.69;4168515;28;20049;-72
2021/09/11 05:27:06;;;;;;;17.23;12.98;;;;;;;16.09;88.18;98637.72;4167793;28;22037;-72
2021/09/11 05:29:07;;;;;;;15.57;11.90;;;;;;;16.07;87.69;98642.94;4169926;28;20407;-72
2021/09/11 05:31:07;;;;;;;19.40;13.50;;;;;;;16.04;87.50;98638.94;4168394;28;20045;-72
2021/09/11 05:33:07;;;;;;;19.85;12.68;;;;;;;16.01;87.47;98645.38;4166778;28;20045;-72
2021/09/11 05:35:08;;;;;;;16.23;13.10;;;;;;;15.98;87.81;98646.19;4168286;28;20061;-72
2021/09/11 05:37:08;;;;;;;16.05;11.20;;;;;;;15.97;87.56;98645.41;4168948;28;20052;-72
2021/09/11 05:39:09;;;;;;;14.82;11.77;;;;;;;15.97;87.42;98644.56;4168971;28;20688;-72
2021/09/11 05:41:09;;;;;;;15.40;10.80;;;;;;;15.95;87.30;98649.78;4167788;28;20049;-72
2021/09/11 05:43:10;;;;;;;20.95;12.50;;;;;;;15.95;87.37;98649.78;4168680;28;20106;-72
2021/09/11 05:45:10;;;;;;;18.30;13.48;;;;;;;15.91;88.25;98651.81;4167399;28;20041;-72
2021/09/11 05:47:11;;;;;;;15.00;12.32;;;;;;;15.92;88.21;98662.56;4168960;28;20048;-72
2021/09/11 05:49:11;;;;;;;15.25;12.20;;;;;;;15.95;87.91;98666.53;4168485;28;20327;-72
2021/09/11 05:51:11;;;;;;;14.82;12.40;;;;;;;15.95;87.55;98661.75;4167601;28;20060;-72
2021/09/11 05:53:12;;;;;;;13.45;11.10;;;;;;;15.99;86.67;98662.53;4167266;28;20049;-72
2021/09/11 05:55:12;;;;;;;13.35;10.90;;;;;;;16.04;86.48;98674.44;4167893;28;20045;-72
2021/09/11 05:57:13;;;;;;;16.70;12.45;;;;;;;16.08;86.46;98669.63;4169732;28;20048;-72
2021/09/11 05:59:13;;;;;;;19.30;13.98;;;;;;;16.13;87.08;98678.34;4168770;28;20103;-72
2021/09/11 06:01:13;;;;;;;20.02;12.65;;;;;;;16.15;87.02;98667.59;4168742;28;20408;-72
2021/09/11 06:03:14;;;;;;;15.48;11.68;;;;;;;16.19;87.09;98670.34;4168649;28;20473;-72
2021/09/11 06:05:14;;;;;;;16.50;13.05;;;;;;;16.20;87.42;98669.13;4168772;28;20079;-72
2021/09/11 06:07:14;;;;;;;14.85;12.43;;;;;;;16.22;87.13;98675.91;4168107;28;20435;-72
2021/09/11 06:09:15;;;;;;;18.70;13.68;;;;;;;16.24;87.42;98678.28;4166784;28;20044;-72
2021/09/11 06:11:15;;;;;;;18.40;11.40;;;;;;;16.25;86.82;98671.50;4162172;28;20127;-72
2021/09/11 06:13:16;;;;;;;13.73;11.55;;;;;;;16.24;87.17;98673.50;4166438;28;20547;-73
2021/09/11 06:15:16;;;;;;;19.95;13.10;;;;;;;16.26;86.55;98673.88;4162905;28;20041;-72
2021/09/11 06:17:16;;;;;;;19.83;13.00;;;;;;;16.28;86.56;98682.63;4167934;28;20048;-72
2021/09/11 06:19:17;;;;;;;17.77;12.25;;;;;;;16.28;86.53;98681.81;4166080;28;20041;-72
2021/09/11 06:21:17;;;;;;;18.05;13.15;;;;;;;16.27;87.04;98671.88;4166673;28;20049;-72
2021/09/11 06:23:18;;;;;;;17.65;13.18;;;;;;;16.28;87.37;98674.25;4166268;28;20045;-72
2021/09/11 06:25:18;;;;;;;19.27;13.40;;;;;;;16.28;87.28;98671.44;4166098;28;20380;-72
2021/09/11 06:27:18;;;;;;;17.98;13.27;;;;;;;16.26;86.88;98676.66;4167372;28;20044;-72
2021/09/11 06:29:19;;;;;;;15.35;13.10;;;;;;;16.29;86.61;98677.81;4170026;28;20203;-72
2021/09/11 06:31:20;;;;;;;15.75;12.02;;;;;;;16.33;86.89;98684.19;4168633;28;20319;-72
2021/09/11 06:33:20;;;;;;;15.95;12.13;;;;;;;16.36;87.12;98683.34;4171235;28;20098;-72
2021/09/11 06:35:20;;;;;;;17.35;12.90;;;;;;;16.40;87.30;98684.13;4170305;28;20813;-72
2021/09/11 06:37:21;;;;;;;19.95;13.57;;;;;;;16.47;87.58;98686.88;4171705;28;20044;-72
2021/09/11 06:39:21;;;;;;;15.73;12.40;;;;;;;16.54;87.49;98686.78;4171557;28;20531;-72
2021/09/11 06:41:22;;;;;;;14.38;11.52;;;;;;;16.62;87.29;98686.72;4169669;28;20492;-72
2021/09/11 06:43:22;;;;;;;18.33;12.77;;;;;;;16.69;87.23;98687.47;4170298;28;20059;-72
2021/09/11 06:45:22;;;;;;;18.70;13.35;;;;;;;16.72;87.08;98674.69;4171368;28;20091;-72
2021/09/11 06:47:23;;;;;;;16.48;12.07;;;;;;;16.80;86.92;98681.81;4171106;28;20480;-72
2021/09/11 06:49:23;;;;;;;15.02;12.52;;;;;;;16.85;86.63;98687.72;4170963;28;20049;-72
2021/09/11 06:51:23;;;;;;;15.23;11.90;;;;;;;16.92;86.35;98683.25;4171075;28;20396;-72
2021/09/11 06:53:24;;;;;;;15.20;12.88;;;;;;;16.99;85.97;98685.97;4168157;28;20699;-72
2021/09/11 06:55:24;;;;;;;14.55;13.02;;;;;;;17.06;86.00;98688.72;4169929;28;20103;-72
2021/09/11 06:57:25;;;;;;;13.55;12.02;;;;;;;17.16;85.83;98690.59;4170894;28;20033;-72
2021/09/11 06:59:25;;;;;;;14.52;11.88;;;;;;;17.21;85.53;98694.91;4171393;28;20045;-72
2021/09/11 07:01:25;;;;;;;12.98;9.90;;;;;;;17.27;84.63;98687.66;4171086;28;20045;-72
2021/09/11 07:03:26;;;;;;;12.77;9.20;;;;;;;17.33;83.65;98692.38;4169998;28;20421;-72
2021/09/11 07:05:26;;;;;;;13.52;9.57;;;;;;;17.42;82.99;98695.44;4171271;28;20048;-72
2021/09/11 07:07:27;;;;;;;17.75;11.48;;;;;;;17.50;83.21;98700.97;4170202;28;20060;-72
2021/09/11 07:09:27;;;;;;;12.38;10.65;;;;;;;17.58;81.49;98694.06;4170740;28;20045;-72
2021/09/11 07:11:27;;;;;;;14.45;11.75;;;;;;;17.64;82.98;98695.97;4171196;28;20048;-72
2021/09/11 07:13:28;;;;;;;11.88;9.93;;;;;;;17.67;80.57;98695.13;4170736;28;20049;-72
2021/09/11 07:15:28;;;;;;;11.20;9.82;;;;;;;17.79;82.80;98688.22;4169678;28;20052;-72
2021/09/11 07:17:29;;;;;;;13.55;9.65;;;;;;;17.83;81.35;98697.34;4167741;28;20052;-72
2021/09/11 07:19:29;;;;;;;11.80;9.32;;;;;;;17.92;79.41;98697.59;4171950;28;20431;-72
2021/09/11 07:21:29;;;;;;;16.80;10.57;;;;;;;18.01;82.53;98696.28;4171112;28;20301;-72
2021/09/11 07:23:30;;;;;;;15.55;11.70;;;;;;;18.03;83.12;98705.84;4169860;28;20049;-72
2021/09/11 07:25:30;;;;;;;13.75;10.23;;;;;;;18.04;82.34;98698.22;4169782;28;20041;-72
2021/09/11 07:27:31;;;;;;;14.00;10.60;;;;;;;18.11;82.19;98703.72;4170682;28;20135;-72
2021/09/11 07:29:31;;;;;;;13.27;9.93;;;;;;;18.14;81.53;98700.09;4170689;28;20043;-72
2021/09/11 07:31:31;;;;;;;15.45;10.35;;;;;;;18.18;82.03;98701.59;4170653;28;20041;-72
2021/09/11 07:33:32;;;;;;;15.18;10.20;;;;;;;18.25;82.48;98703.50;4156582;28;20068;-72
2021/09/11 07:35:32;;;;;;;13.90;9.75;;;;;;;18.31;81.86;98715.81;4154682;28;20223;-72
2021/09/11 07:37:33;;;;;;;9.98;8.90;;;;;;;18.38;80.66;98721.31;4154043;28;20049;-72
2021/09/11 07:39:33;;;;;;;13.00;8.88;;;;;;;18.46;80.76;98708.78;4153441;28;20080;-72
2021/09/11 07:41:33;;;;;;;10.23;9.20;;;;;;;18.49;80.56;98709.94;4152380;28;20551;-72
2021/09/11 07:43:34;;;;;;;10.90;8.50;;;;;;;18.62;80.19;98716.53;4153239;28;20038;-72
2021/09/11 07:45:34;;;;;;;9.70;8.38;;;;;;;18.67;80.05;98716.03;4153240;28;20377;-72
2021/09/11 07:47:35;;;;;;;10.80;8.18;;;;;;;18.73;79.46;98707.94;4154294;28;20053;-72
2021/09/11 07:49:35;;;;;;;10.07;7.95;;;;;;;18.78;79.15;98705.47;4153739;28;20480;-72
2021/09/11 07:51:35;;;;;;;8.43;6.93;;;;;;;18.79;78.12;98715.44;4153384;28;20137;-72
2021/09/11 07:53:36;;;;;;;7.00;6.30;;;;;;;18.85;77.81;98721.34;4153104;28;20046;-72
2021/09/11 07:55:37;;;;;;;7.53;6.00;;;;;;;18.85;78.15;98720.53;4154710;28;20037;-72
2021/09/11 07:57:37;;;;;;;7.18;6.38;;;;;;;18.86;77.32;98722.13;4153933;28;20049;-72
2021/09/11 07:59:37;;;;;;;7.95;6.70;;;;;;;18.88;78.06;98719.72;4153608;28;20038;-72
2021/09/11 08:01:38;;;;;;;7.15;6.15;;;;;;;18.90;77.47;98714.47;4152419;28;20053;-72
2021/09/11 08:03:38;;;;;;;8.88;6.65;;;;;;;19.03;78.20;98718.19;4152913;28;20060;-72
2021/09/11 08:05:39;;;;;;;7.88;7.07;;;;;;;19.12;77.78;98723.28;4152847;28;20042;-72
2021/09/11 08:07:39;;;;;;;8.13;6.38;;;;;;;19.27;76.26;98721.75;4151568;28;20327;-72
2021/09/11 08:09:39;;;;;;;13.15;7.38;;;;;;;19.37;76.45;98723.59;4150184;28;20052;-72
2021/09/11 08:11:40;;;;;;;8.25;6.60;;;;;;;19.34;74.67;98727.22;4152900;28;20367;-72
2021/09/11 08:13:40;;;;;;;7.07;6.38;;;;;;;19.38;75.10;98722.34;4152636;28;20041;-72
2021/09/11 08:15:44;;;;;;;8.25;7.45;;;;;;;19.33;75.54;98729.25;4153046;28;20046;-72
2021/09/11 08:17:44;;;;;;;8.77;7.72;;;;;;;19.39;76.02;98731.56;4153845;28;20046;-72
2021/09/11 08:19:45;;;;;;;12.65;7.97;;;;;;;19.33;75.60;98731.25;4152821;28;20046;-72
2021/09/11 08:21:45;;;;;;;9.25;7.97;;;;;;;19.47;76.37;98733.00;4153191;28;20045;-72
2021/09/11 08:23:46;;;;;;;11.43;8.38;;;;;;;19.44;75.38;98731.81;4165851;28;20056;-72
2021/09/11 08:25:46;;;;;;;10.82;8.35;;;;;;;19.64;76.40;98737.47;4169679;28;20049;-72
2021/09/11 08:27:47;;;;;;;8.95;6.88;;;;;;;19.74;74.56;98733.66;4169741;28;20049;-72
2021/09/11 08:29:47;;;;;;;8.20;6.80;;;;;;;19.71;73.32;98733.75;4170117;28;20041;-72
2021/09/11 08:31:47;;;;;;;8.10;7.05;;;;;;;19.83;73.84;98733.06;4169996;28;20111;-72
2021/09/11 08:33:48;;;;;;;9.95;6.57;;;;;;;19.88;74.14;98736.16;4167190;28;20040;-72
2021/09/11 08:35:48;;;;;;;8.30;6.93;;;;;;;19.86;72.81;98741.44;4169831;28;20396;-72
2021/09/11 08:37:49;;;;;;;10.00;6.85;;;;;;;19.84;72.86;98751.50;4169789;28;20131;-72
2021/09/11 08:39:49;;;;;;;8.88;6.85;;;;;;;19.83;72.07;98741.50;4170167;28;20492;-72
2021/09/11 08:41:52;;;;;;;10.32;6.70;;;;;;;19.81;72.70;98739.13;4170425;28;20056;-72
2021/09/11 08:43:52;;;;;;;6.93;5.72;;;;;;;19.87;72.88;98743.00;4166779;28;20044;-72
2021/09/11 08:45:52;;;;;;;6.05;5.45;;;;;;;19.92;71.92;98738.88;4170299;28;20048;-72
2021/09/11 08:47:53;;;;;;;5.53;4.82;;;;;;;19.92;71.83;98739.66;4168360;28;20055;-72
2021/09/11 08:49:53;;;;;;;10.48;5.95;;;;;;;19.91;71.80;98743.72;4167047;28;20052;-72
2021/09/11 08:51:54;;;;;;;6.88;5.93;;;;;;;19.90;71.52;98744.16;4169889;28;20443;-72
2021/09/11 08:53:54;;;;;;;8.50;5.65;;;;;;;19.90;71.65;98756.16;4167625;28;20056;-72
2021/09/11 08:55:54;;;;;;;5.85;5.25;;;;;;;19.92;71.75;98750.91;4169729;28;20045;-72
2021/09/11 08:57:59;;;;;;;6.28;4.85;;;;;;;19.87;71.22;98745.03;4167638;28;20041;-72
2021/09/11 08:59:59;;;;;;;6.13;5.00;;;;;;;19.82;70.37;98743.50;4168929;28;20278;-72
2021/09/11 09:02:06;;;;;;;5.63;5.03;;;;;;;19.86;70.42;98747.03;4169063;28;20079;-72
2021/09/11 09:04:06;;;;;;;8.23;7.25;;;;;;;20.00;70.87;98751.53;4166675;28;20085;-72
2021/09/11 09:06:20;;;;;;;5.80;5.15;;;;;;;20.10;70.29;98747.69;4167258;28;20064;-72
2021/09/11 09:08:27;;;;;;;5.10;4.60;;;;;;;20.14;69.74;98742.81;4165734;28;20694;-72
2021/09/11 09:10:27;;;;;;;12.88;9.57;;;;;;;20.19;68.08;98758.34;4166283;28;20503;-72
2021/09/11 09:12:41;;;;;;;14.60;10.95;;;;;;;20.16;68.63;98745.97;4168299;28;20045;-72
2021/09/11 09:14:58;;;;;;;11.07;8.48;;;;;;;20.21;68.68;98750.28;4167649;28;20048;-72
2021/09/11 09:17:09;;;;;;;7.90;6.55;;;;;;;20.25;68.72;98736.94;4164448;28;20139;-72